Time;durP1;ratioP1;P1;durP2;ratioP2;P2;SDS_P1;SDS_P2;PMS_P1;PMS_P2;Temp;Humidity;BMP_temperature;BMP_pressure;BME280_temperature;BME280_humidity;BME280_pressure;Samples;Min_cycle;Max_cycle;Signal;HPM_P1;HPM_P2
2023/08/08 00:01:44;;;;;;;0.77;0.77;;;;;;;;;;5095321;28;20239;-64
2023/08/08 00:04:12;;;;;;;1.67;1.00;;;;;;;;;;5099256;28;20233;-65
2023/08/08 00:06:40;;;;;;;2.93;0.83;;;;;;;;;;5099162;28;20208;-65
2023/08/08 00:09:08;;;;;;;1.10;1.00;;;;;;;;;;5099320;28;20218;-65
2023/08/08 00:11:36;;;;;;;0.90;0.83;;;;;;;;;;5098866;28;20308;-65
2023/08/08 00:14:03;;;;;;;1.60;0.77;;;;;;;;;;5099055;28;20239;-65
2023/08/08 00:16:32;;;;;;;1.73;0.77;;;;;;;;;;5099136;28;20235;-65
2023/08/08 00:19:00;;;;;;;1.00;0.80;;;;;;;;;;5099234;28;20211;-64
2023/08/08 00:21:28;;;;;;;1.60;0.90;;;;;;;;;;5098823;28;20227;-64
2023/08/08 00:23:56;;;;;;;1.20;1.20;;;;;;;;;;5099003;28;20234;-64
2023/08/08 00:26:23;;;;;;;0.80;0.80;;;;;;;;;;5098660;28;20207;-65
2023/08/08 00:28:51;;;;;;;1.83;0.90;;;;;;;;;;5098946;28;20206;-64
2023/08/08 00:31:19;;;;;;;1.00;1.00;;;;;;;;;;5098656;28;20233;-65
2023/08/08 00:33:49;;;;;;;3.93;1.00;;;;;;;;;;5098613;28;20606;-64
2023/08/08 00:36:16;;;;;;;1.63;1.00;;;;;;;;;;5085656;28;20288;-65
2023/08/08 00:38:44;;;;;;;1.03;0.93;;;;;;;;;;5098712;28;20286;-65
2023/08/08 00:41:12;;;;;;;1.57;0.90;;;;;;;;;;5091833;28;20805;-64
2023/08/08 00:43:40;;;;;;;3.47;1.30;;;;;;;;;;5098529;28;20218;-64
2023/08/08 00:46:08;;;;;;;1.23;1.07;;;;;;;;;;5098330;28;20233;-64
2023/08/08 00:48:35;;;;;;;2.10;1.30;;;;;;;;;;5098198;28;20210;-65
2023/08/08 00:51:05;;;;;;;0.70;0.70;;;;;;;;;;5097294;28;20227;-65
2023/08/08 00:53:33;;;;;;;2.90;1.13;;;;;;;;;;5098411;28;20203;-65
2023/08/08 00:56:01;;;;;;;0.90;0.90;;;;;;;;;;5097927;28;20216;-64
2023/08/08 00:58:29;;;;;;;1.53;0.90;;;;;;;;;;5098350;28;20211;-64
2023/08/08 01:00:59;;;;;;;0.90;0.90;;;;;;;;;;5088241;28;20305;-64
2023/08/08 01:03:28;;;;;;;1.30;0.80;;;;;;;;;;5098036;28;20557;-65
2023/08/08 01:05:59;;;;;;;2.10;1.87;;;;;;;;;;5098048;28;20237;-65
2023/08/08 01:08:34;;;;;;;1.40;0.87;;;;;;;;;;5098065;28;20210;-64
2023/08/08 01:11:02;;;;;;;1.73;0.80;;;;;;;;;;5097979;28;20228;-64
2023/08/08 01:13:32;;;;;;;1.23;1.13;;;;;;;;;;5097888;28;20598;-64
2023/08/08 01:16:00;;;;;;;0.83;0.80;;;;;;;;;;5098081;28;20206;-64
2023/08/08 01:18:28;;;;;;;1.60;0.90;;;;;;;;;;5098107;28;20217;-63
2023/08/08 01:20:56;;;;;;;0.80;0.80;;;;;;;;;;5098062;28;20225;-63
2023/08/08 01:23:27;;;;;;;1.63;1.13;;;;;;;;;;5097796;28;20241;-65
2023/08/08 01:25:56;;;;;;;0.83;0.80;;;;;;;;;;5097480;28;20570;-65
2023/08/08 01:28:24;;;;;;;2.00;0.87;;;;;;;;;;5098064;28;20272;-65
2023/08/08 01:30:53;;;;;;;2.70;0.90;;;;;;;;;;5097907;28;20237;-65
2023/08/08 01:33:21;;;;;;;2.93;0.90;;;;;;;;;;5097788;28;20620;-65
2023/08/08 01:35:52;;;;;;;4.27;1.23;;;;;;;;;;5097982;28;20207;-65
2023/08/08 01:38:21;;;;;;;1.00;0.80;;;;;;;;;;5097676;28;20266;-65
2023/08/08 01:40:51;;;;;;;2.10;1.10;;;;;;;;;;5089581;28;20259;-65
2023/08/08 01:43:21;;;;;;;1.47;1.10;;;;;;;;;;5097682;28;20290;-65
2023/08/08 01:45:50;;;;;;;1.70;1.00;;;;;;;;;;5097804;28;20223;-66
2023/08/08 01:48:17;;;;;;;1.33;0.90;;;;;;;;;;5097671;28;20288;-65
2023/08/08 01:50:45;;;;;;;2.10;0.80;;;;;;;;;;5097903;28;20225;-65
2023/08/08 01:53:13;;;;;;;0.70;0.70;;;;;;;;;;5097831;28;20238;-65
2023/08/08 01:55:40;;;;;;;0.80;0.70;;;;;;;;;;5097475;28;20664;-65
2023/08/08 01:58:08;;;;;;;0.70;0.70;;;;;;;;;;5097895;28;20641;-64
2023/08/08 02:00:37;;;;;;;1.30;1.00;;;;;;;;;;5087238;28;20241;-63
2023/08/08 02:03:05;;;;;;;0.80;0.70;;;;;;;;;;5100490;28;20233;-64
2023/08/08 02:05:33;;;;;;;1.50;1.03;;;;;;;;;;5101809;28;20236;-64
2023/08/08 02:08:01;;;;;;;1.73;0.80;;;;;;;;;;5101489;28;20269;-64
2023/08/08 02:10:29;;;;;;;1.20;0.70;;;;;;;;;;5101296;28;20310;-64
2023/08/08 02:12:57;;;;;;;1.30;0.77;;;;;;;;;;5101040;28;20591;-65
2023/08/08 02:15:24;;;;;;;3.60;1.27;;;;;;;;;;5101514;28;20705;-65
2023/08/08 02:17:53;;;;;;;0.97;0.70;;;;;;;;;;5101444;28;20209;-65
2023/08/08 02:20:21;;;;;;;1.33;1.23;;;;;;;;;;5101393;28;20240;-65
2023/08/08 02:22:49;;;;;;;2.77;0.90;;;;;;;;;;5101215;28;20205;-65
2023/08/08 02:25:17;;;;;;;0.70;0.70;;;;;;;;;;5101601;28;20217;-65
2023/08/08 02:27:45;;;;;;;3.63;0.77;;;;;;;;;;5100720;28;20574;-65
2023/08/08 02:30:13;;;;;;;1.20;1.07;;;;;;;;;;5101004;28;20316;-65
2023/08/08 02:32:42;;;;;;;0.83;0.83;;;;;;;;;;5100973;28;20293;-64
2023/08/08 02:35:11;;;;;;;5.60;0.90;;;;;;;;;;5100915;28;20216;-64
2023/08/08 02:37:38;;;;;;;1.57;1.00;;;;;;;;;;5100963;28;20213;-63
2023/08/08 02:40:07;;;;;;;0.97;0.70;;;;;;;;;;5096032;28;20218;-64
2023/08/08 02:42:35;;;;;;;1.00;0.90;;;;;;;;;;5098754;28;20205;-63
2023/08/08 02:45:03;;;;;;;1.10;0.73;;;;;;;;;;5100989;28;20205;-64
2023/08/08 02:47:31;;;;;;;0.73;0.70;;;;;;;;;;5100774;28;20692;-64
2023/08/08 02:49:59;;;;;;;1.67;0.73;;;;;;;;;;5100877;28;20231;-65
2023/08/08 02:52:28;;;;;;;1.67;0.77;;;;;;;;;;5100804;28;20205;-64
2023/08/08 02:54:55;;;;;;;1.00;0.90;;;;;;;;;;5101180;28;20213;-64
2023/08/08 02:57:23;;;;;;;2.47;0.90;;;;;;;;;;5100285;28;20308;-64
2023/08/08 02:59:51;;;;;;;0.63;0.63;;;;;;;;;;5090746;28;20324;-64
2023/08/08 03:02:19;;;;;;;1.40;0.90;;;;;;;;;;5100660;28;20209;-64
2023/08/08 03:04:47;;;;;;;2.57;1.10;;;;;;;;;;5100325;28;20206;-64
2023/08/08 03:07:14;;;;;;;1.23;0.70;;;;;;;;;;5100318;28;20228;-64
2023/08/08 03:09:43;;;;;;;1.67;0.80;;;;;;;;;;5100084;28;20205;-64
2023/08/08 03:12:11;;;;;;;0.70;0.70;;;;;;;;;;5100223;28;20292;-64
2023/08/08 03:14:39;;;;;;;0.80;0.80;;;;;;;;;;5099197;28;20308;-65
2023/08/08 03:17:07;;;;;;;0.67;0.67;;;;;;;;;;5100075;28;20202;-63
2023/08/08 03:19:34;;;;;;;1.00;0.87;;;;;;;;;;5099936;28;20733;-64
2023/08/08 03:22:02;;;;;;;1.73;0.77;;;;;;;;;;5099877;28;20240;-65
2023/08/08 03:24:30;;;;;;;1.60;1.53;;;;;;;;;;5100197;28;20288;-65
2023/08/08 03:26:59;;;;;;;2.00;0.90;;;;;;;;;;5099818;28;20225;-65
2023/08/08 03:29:27;;;;;;;0.90;0.90;;;;;;;;;;5100154;28;20206;-65
2023/08/08 03:31:55;;;;;;;2.33;0.83;;;;;;;;;;5099788;28;20708;-63
2023/08/08 03:34:23;;;;;;;0.97;0.93;;;;;;;;;;5099762;28;20240;-64
2023/08/08 03:36:51;;;;;;;2.30;0.90;;;;;;;;;;5099647;28;20206;-64
2023/08/08 03:39:18;;;;;;;1.07;0.90;;;;;;;;;;5099887;28;20213;-65
2023/08/08 03:41:46;;;;;;;2.57;1.03;;;;;;;;;;5093391;28;20312;-64
2023/08/08 03:44:16;;;;;;;1.77;1.10;;;;;;;;;;5099800;28;20286;-63
2023/08/08 03:46:43;;;;;;;3.80;1.10;;;;;;;;;;5099573;28;20241;-64
2023/08/08 03:49:11;;;;;;;2.30;1.37;;;;;;;;;;5099328;28;20231;-65
2023/08/08 03:51:39;;;;;;;1.47;1.10;;;;;;;;;;5099212;28;20263;-65
2023/08/08 03:54:07;;;;;;;1.73;1.17;;;;;;;;;;5099638;28;20215;-65
2023/08/08 03:56:34;;;;;;;2.27;1.40;;;;;;;;;;5099029;28;20695;-63
2023/08/08 03:59:02;;;;;;;2.77;1.37;;;;;;;;;;5096159;28;20673;-63
2023/08/08 04:01:32;;;;;;;1.87;1.20;;;;;;;;;;5093601;28;20230;-63
2023/08/08 04:03:59;;;;;;;1.57;1.10;;;;;;;;;;5099293;28;20206;-63
2023/08/08 04:06:27;;;;;;;1.70;1.37;;;;;;;;;;5099164;28;20235;-64
2023/08/08 04:08:55;;;;;;;1.23;1.13;;;;;;;;;;5099710;28;20209;-64
2023/08/08 04:11:23;;;;;;;1.87;1.20;;;;;;;;;;5099317;28;20221;-64
2023/08/08 04:13:50;;;;;;;3.33;1.57;;;;;;;;;;5099797;28;20708;-64
2023/08/08 04:16:18;;;;;;;2.80;1.37;;;;;;;;;;5099261;28;20218;-64
2023/08/08 04:18:47;;;;;;;2.17;1.40;;;;;;;;;;5099223;28;20213;-65
2023/08/08 04:21:15;;;;;;;1.33;1.13;;;;;;;;;;5098964;28;20297;-64
2023/08/08 04:23:43;;;;;;;3.07;1.40;;;;;;;;;;5098803;28;20205;-64
2023/08/08 04:26:10;;;;;;;1.00;1.00;;;;;;;;;;5098265;28;20267;-64
2023/08/08 04:28:38;;;;;;;3.73;1.40;;;;;;;;;;5098754;28;20205;-64
2023/08/08 04:31:06;;;;;;;1.57;1.00;;;;;;;;;;5098738;28;20229;-65
2023/08/08 04:33:34;;;;;;;1.73;0.90;;;;;;;;;;5098903;28;20206;-65
2023/08/08 04:36:03;;;;;;;1.33;1.00;;;;;;;;;;5098679;28;20288;-64
2023/08/08 04:38:31;;;;;;;1.87;1.10;;;;;;;;;;5098628;28;20197;-65
2023/08/08 04:40:59;;;;;;;2.20;0.77;;;;;;;;;;5091645;28;20217;-65
2023/08/08 04:43:27;;;;;;;3.00;1.20;;;;;;;;;;5098886;28;20202;-65
2023/08/08 04:45:55;;;;;;;1.03;0.87;;;;;;;;;;5098648;28;20205;-64
2023/08/08 04:48:23;;;;;;;1.80;1.30;;;;;;;;;;5098708;28;20236;-63
2023/08/08 04:50:50;;;;;;;1.10;1.00;;;;;;;;;;5098469;28;20226;-65
2023/08/08 04:53:20;;;;;;;2.17;1.10;;;;;;;;;;5098227;28;20692;-65
2023/08/08 04:55:47;;;;;;;6.07;1.40;;;;;;;;;;5098279;28;20210;-64
2023/08/08 04:58:15;;;;;;;3.97;1.30;;;;;;;;;;5098188;28;20217;-64
2023/08/08 05:00:43;;;;;;;2.27;1.27;;;;;;;;;;5088434;28;20269;-65
2023/08/08 05:03:11;;;;;;;1.27;1.17;;;;;;;;;;5098767;28;20213;-64
2023/08/08 05:05:39;;;;;;;1.63;1.20;;;;;;;;;;5098399;28;20213;-65
2023/08/08 05:08:07;;;;;;;7.93;4.27;;;;;;;;;;5098222;28;20229;-65
2023/08/08 05:10:36;;;;;;;8.07;4.07;;;;;;;;;;5097931;28;20229;-65
2023/08/08 05:13:04;;;;;;;8.60;4.00;;;;;;;;;;5098173;28;20211;-66
2023/08/08 05:15:31;;;;;;;6.03;3.43;;;;;;;;;;5098338;28;20649;-66
2023/08/08 05:17:59;;;;;;;2.93;2.33;;;;;;;;;;5097981;28;20307;-66
2023/08/08 05:20:27;;;;;;;4.13;2.10;;;;;;;;;;5098015;28;20225;-63
2023/08/08 05:22:55;;;;;;;4.73;2.60;;;;;;;;;;5097795;28;20563;-66
2023/08/08 05:25:22;;;;;;;4.50;1.90;;;;;;;;;;5097819;28;20205;-66
2023/08/08 05:27:53;;;;;;;3.20;1.70;;;;;;;;;;5097874;28;20312;-64
2023/08/08 05:30:21;;;;;;;2.07;1.57;;;;;;;;;;5098052;28;20312;-66
2023/08/08 05:32:49;;;;;;;1.77;1.20;;;;;;;;;;5098035;28;20201;-66
2023/08/08 05:35:16;;;;;;;1.93;1.20;;;;;;;;;;5097974;28;20202;-65
2023/08/08 05:37:44;;;;;;;2.13;1.37;;;;;;;;;;5100191;28;20208;-65
2023/08/08 05:40:12;;;;;;;1.70;1.60;;;;;;;;;;5096414;28;20214;-64
2023/08/08 05:42:40;;;;;;;2.87;1.17;;;;;;;;;;5101090;28;20588;-65
2023/08/08 05:45:10;;;;;;;1.77;1.03;;;;;;;;;;5101597;28;20236;-65
2023/08/08 05:47:38;;;;;;;2.33;1.37;;;;;;;;;;5101947;28;20224;-64
2023/08/08 05:50:06;;;;;;;1.90;1.33;;;;;;;;;;5101207;28;20308;-66
2023/08/08 05:52:34;;;;;;;4.20;1.30;;;;;;;;;;5101892;28;20217;-66
2023/08/08 05:55:02;;;;;;;1.63;1.30;;;;;;;;;;5101422;28;20232;-66
2023/08/08 05:57:30;;;;;;;7.13;1.87;;;;;;;;;;5100463;28;20233;-64
2023/08/08 05:59:57;;;;;;;2.07;1.57;;;;;;;;;;5090615;28;20241;-66
2023/08/08 06:02:28;;;;;;;3.67;1.43;;;;;;;;;;5101035;28;20232;-65
2023/08/08 06:04:56;;;;;;;2.47;1.30;;;;;;;;;;5101035;28;20209;-65
2023/08/08 06:07:24;;;;;;;3.97;1.73;;;;;;;;;;5101490;28;20263;-64
2023/08/08 06:09:52;;;;;;;1.70;1.60;;;;;;;;;;5101500;28;20688;-63
2023/08/08 06:12:20;;;;;;;4.80;1.53;;;;;;;;;;5101302;28;20208;-64
2023/08/08 06:14:48;;;;;;;4.53;1.77;;;;;;;;;;5101417;28;20216;-65
2023/08/08 06:17:16;;;;;;;1.60;1.50;;;;;;;;;;5101492;28;20209;-64
2023/08/08 06:19:45;;;;;;;3.07;2.00;;;;;;;;;;5101313;28;20205;-64
2023/08/08 06:22:12;;;;;;;1.40;1.30;;;;;;;;;;5101411;28;20539;-65
2023/08/08 06:24:40;;;;;;;4.93;1.47;;;;;;;;;;5100997;28;20296;-64
2023/08/08 06:27:08;;;;;;;2.50;1.30;;;;;;;;;;5100813;28;20211;-64
2023/08/08 06:29:36;;;;;;;2.03;1.47;;;;;;;;;;5101021;28;20232;-65
2023/08/08 06:32:04;;;;;;;1.47;1.37;;;;;;;;;;5101202;28;20216;-64
2023/08/08 06:34:32;;;;;;;1.53;1.30;;;;;;;;;;5101105;28;20243;-64
2023/08/08 06:37:01;;;;;;;2.57;1.53;;;;;;;;;;5101054;28;20268;-64
2023/08/08 06:39:29;;;;;;;3.13;1.20;;;;;;;;;;5101088;28;20208;-65
2023/08/08 06:41:57;;;;;;;1.40;1.27;;;;;;;;;;5093307;28;20209;-65
2023/08/08 06:44:25;;;;;;;1.77;1.30;;;;;;;;;;5100923;28;20205;-66
2023/08/08 06:46:53;;;;;;;4.00;1.10;;;;;;;;;;5100979;28;20227;-65
2023/08/08 06:49:21;;;;;;;3.50;1.40;;;;;;;;;;5099191;28;20250;-65
2023/08/08 06:51:49;;;;;;;1.83;1.10;;;;;;;;;;5100564;28;20701;-63
2023/08/08 06:54:18;;;;;;;2.17;1.10;;;;;;;;;;5100807;28;20206;-64
2023/08/08 06:56:45;;;;;;;4.27;1.40;;;;;;;;;;5100425;28;20206;-64
2023/08/08 06:59:13;;;;;;;2.47;1.37;;;;;;;;;;5095528;28;20210;-64
2023/08/08 07:01:41;;;;;;;2.17;1.33;;;;;;;;;;5095887;28;20771;-65
2023/08/08 07:04:09;;;;;;;5.70;1.90;;;;;;;;;;5100334;28;20209;-65
2023/08/08 07:06:36;;;;;;;5.53;1.30;;;;;;;;;;5100175;28;20567;-65
2023/08/08 07:09:04;;;;;;;1.27;1.17;;;;;;;;;;5100505;28;20711;-65
2023/08/08 07:11:33;;;;;;;3.37;1.30;;;;;;;;;;5100155;28;20226;-64
2023/08/08 07:14:01;;;;;;;1.00;1.00;;;;;;;;;;5100269;28;20582;-65
2023/08/08 07:16:29;;;;;;;1.20;1.10;;;;;;;;;;5100058;28;20325;-65
2023/08/08 07:18:57;;;;;;;1.83;1.23;;;;;;;;;;5100194;28;20197;-65
2023/08/08 07:21:24;;;;;;;3.20;1.50;;;;;;;;;;5099776;28;20221;-65
2023/08/08 07:23:52;;;;;;;2.33;1.33;;;;;;;;;;5100241;28;20213;-65
2023/08/08 07:26:22;;;;;;;1.50;1.30;;;;;;;;;;5099908;28;20216;-65
2023/08/08 07:28:51;;;;;;;4.23;1.80;;;;;;;;;;5099821;28;20649;-64
2023/08/08 07:31:18;;;;;;;2.93;1.37;;;;;;;;;;5099477;28;20317;-65
2023/08/08 07:33:46;;;;;;;1.93;1.30;;;;;;;;;;5099644;28;20248;-65
2023/08/08 07:36:14;;;;;;;2.10;1.23;;;;;;;;;;5099736;28;20284;-65
2023/08/08 07:38:42;;;;;;;1.63;1.30;;;;;;;;;;5099919;28;20284;-65
2023/08/08 07:41:10;;;;;;;2.63;1.33;;;;;;;;;;5092796;28;20577;-65
2023/08/08 07:43:37;;;;;;;2.40;1.10;;;;;;;;;;5099673;28;20258;-65
2023/08/08 07:46:06;;;;;;;3.63;1.10;;;;;;;;;;5099754;28;20697;-64
2023/08/08 07:48:34;;;;;;;2.67;1.03;;;;;;;;;;5099327;28;20230;-65
2023/08/08 07:51:03;;;;;;;2.80;1.00;;;;;;;;;;5099264;28;20229;-65
2023/08/08 07:53:30;;;;;;;2.07;1.23;;;;;;;;;;5099573;28;20212;-64
2023/08/08 07:55:58;;;;;;;4.10;1.50;;;;;;;;;;5099343;28;20206;-64
2023/08/08 07:58:27;;;;;;;1.93;1.07;;;;;;;;;;5099512;28;20205;-66
2023/08/08 08:00:54;;;;;;;2.60;1.00;;;;;;;;;;5088870;28;20656;-65
2023/08/08 08:03:24;;;;;;;1.17;0.80;;;;;;;;;;5099443;28;20213;-64
2023/08/08 08:05:51;;;;;;;2.03;1.10;;;;;;;;;;5099477;28;20205;-65
2023/08/08 08:08:21;;;;;;;4.87;1.30;;;;;;;;;;5099139;28;20277;-65
2023/08/08 08:10:50;;;;;;;2.20;1.30;;;;;;;;;;5098989;28;20282;-65
2023/08/08 08:13:18;;;;;;;1.23;0.90;;;;;;;;;;5099210;28;20293;-64
2023/08/08 08:15:46;;;;;;;2.30;1.20;;;;;;;;;;5099267;28;20310;-64
2023/08/08 08:18:16;;;;;;;2.40;1.10;;;;;;;;;;5099151;28;20206;-64
2023/08/08 08:20:47;;;;;;;7.07;1.23;;;;;;;;;;5098800;28;20226;-64
2023/08/08 08:23:15;;;;;;;1.37;1.07;;;;;;;;;;5099010;28;20213;-65
2023/08/08 08:25:43;;;;;;;6.30;1.07;;;;;;;;;;5099044;28;20205;-64
2023/08/08 08:28:10;;;;;;;1.00;0.90;;;;;;;;;;5098980;28;20236;-64
2023/08/08 08:30:38;;;;;;;3.43;1.13;;;;;;;;;;5098557;28;20233;-64
2023/08/08 08:33:07;;;;;;;3.00;0.93;;;;;;;;;;5099029;28;20239;-64
2023/08/08 08:35:35;;;;;;;1.90;1.13;;;;;;;;;;5098501;28;20216;-64
2023/08/08 08:38:04;;;;;;;1.63;0.80;;;;;;;;;;5098693;28;20212;-64
2023/08/08 08:40:35;;;;;;;1.23;0.87;;;;;;;;;;5091082;28;20218;-64
2023/08/08 08:43:03;;;;;;;1.10;0.97;;;;;;;;;;5098732;28;20206;-64
2023/08/08 08:45:31;;;;;;;3.60;1.00;;;;;;;;;;5098458;28;20209;-64
2023/08/08 08:48:00;;;;;;;1.20;1.10;;;;;;;;;;5098553;28;20717;-65
2023/08/08 08:50:28;;;;;;;5.23;1.10;;;;;;;;;;5098443;28;20316;-65
2023/08/08 08:52:56;;;;;;;3.93;3.27;;;;;;;;;;5098543;28;20214;-63
2023/08/08 08:55:26;;;;;;;2.33;0.90;;;;;;;;;;5097985;28;20260;-65
2023/08/08 08:57:54;;;;;;;2.67;1.13;;;;;;;;;;5098277;28;20631;-65
2023/08/08 09:00:22;;;;;;;2.43;1.63;;;;;;;;;;5088231;28;20269;-65
2023/08/08 09:02:50;;;;;;;4.83;1.40;;;;;;;;;;5098405;28;20238;-65
2023/08/08 09:05:21;;;;;;;0.90;0.80;;;;;;;;;;5098493;28;20205;-65
2023/08/08 09:07:49;;;;;;;1.63;1.27;;;;;;;;;;5098031;28;20217;-65
2023/08/08 09:10:17;;;;;;;1.17;0.80;;;;;;;;;;5098012;28;20230;-66
2023/08/08 09:12:47;;;;;;;2.07;1.00;;;;;;;;;;5097314;28;20206;-66
2023/08/08 09:15:14;;;;;;;2.57;0.90;;;;;;;;;;5098310;28;20208;-66
2023/08/08 09:17:44;;;;;;;1.77;0.93;;;;;;;;;;5097986;28;20206;-66
2023/08/08 09:20:16;;;;;;;2.73;1.03;;;;;;;;;;5097888;28;20305;-66
2023/08/08 09:22:43;;;;;;;1.37;0.80;;;;;;;;;;5098000;28;20290;-66
2023/08/08 09:25:11;;;;;;;2.33;0.90;;;;;;;;;;5097830;28;20239;-65
2023/08/08 09:27:41;;;;;;;2.40;0.80;;;;;;;;;;5097929;28;20266;-65
2023/08/08 09:30:11;;;;;;;2.93;1.20;;;;;;;;;;5097940;28;20239;-65
2023/08/08 09:32:39;;;;;;;1.53;0.60;;;;;;;;;;5097751;28;20636;-66
2023/08/08 09:35:09;;;;;;;3.73;0.90;;;;;;;;;;5098058;28;20201;-66
2023/08/08 09:37:37;;;;;;;1.83;0.73;;;;;;;;;;5097651;28;20210;-65
2023/08/08 09:40:07;;;;;;;3.23;1.00;;;;;;;;;;5092898;28;20287;-65
2023/08/08 09:42:36;;;;;;;4.23;0.77;;;;;;;;;;5096600;28;20234;-65
2023/08/08 09:45:04;;;;;;;1.77;0.80;;;;;;;;;;5097927;28;20203;-65
2023/08/08 09:47:33;;;;;;;1.70;1.00;;;;;;;;;;5098054;28;20204;-66
2023/08/08 09:50:04;;;;;;;1.73;0.77;;;;;;;;;;5097856;28;20283;-66
2023/08/08 09:52:33;;;;;;;3.23;0.97;;;;;;;;;;5084615;28;20205;-65
2023/08/08 09:55:02;;;;;;;4.17;1.00;;;;;;;;;;5097934;28;20207;-65
2023/08/08 09:57:30;;;;;;;3.70;1.50;;;;;;;;;;5097479;28;20659;-65
2023/08/08 09:59:58;;;;;;;2.37;0.60;;;;;;;;;;5087103;28;20241;-65
2023/08/08 10:02:26;;;;;;;1.50;0.80;;;;;;;;;;5097704;28;20203;-66
2023/08/08 10:04:58;;;;;;;5.07;0.87;;;;;;;;;;5097451;28;20205;-66
2023/08/08 10:07:26;;;;;;;1.63;0.80;;;;;;;;;;5097697;28;20265;-66
2023/08/08 10:09:54;;;;;;;0.50;0.50;;;;;;;;;;5097668;28;20697;-66
2023/08/08 10:12:21;;;;;;;1.90;1.13;;;;;;;;;;5097440;28;20207;-65
2023/08/08 10:14:51;;;;;;;1.10;0.67;;;;;;;;;;5097524;28;20683;-65
2023/08/08 10:17:19;;;;;;;0.80;0.67;;;;;;;;;;5097316;28;20215;-65
2023/08/08 10:19:54;;;;;;;2.77;0.80;;;;;;;;;;5097442;28;20205;-65
2023/08/08 10:22:24;;;;;;;3.67;0.90;;;;;;;;;;5097476;28;20238;-65
2023/08/08 10:24:52;;;;;;;3.23;1.50;;;;;;;;;;5101417;28;20582;-65
2023/08/08 10:27:31;;;;;;;1.40;0.70;;;;;;;;;;5100868;28;20733;-65
2023/08/08 10:30:04;;;;;;;1.27;0.80;;;;;;;;;;5101121;28;20230;-65
2023/08/08 10:32:39;;;;;;;0.97;0.80;;;;;;;;;;5100859;28;20213;-65
2023/08/08 10:35:07;;;;;;;1.70;0.70;;;;;;;;;;5101229;28;20254;-66
2023/08/08 10:37:37;;;;;;;0.60;0.60;;;;;;;;;;5100963;28;20668;-66
2023/08/08 10:40:06;;;;;;;0.80;0.73;;;;;;;;;;5095975;28;20729;-65
2023/08/08 10:42:42;;;;;;;1.10;0.80;;;;;;;;;;5098683;28;20227;-66
2023/08/08 10:45:11;;;;;;;1.37;0.70;;;;;;;;;;5100952;28;20658;-65
2023/08/08 10:47:38;;;;;;;1.70;0.77;;;;;;;;;;5100919;28;20202;-65
2023/08/08 10:50:08;;;;;;;1.17;0.80;;;;;;;;;;5100675;28;20232;-65
2023/08/08 10:52:50;;;;;;;1.40;0.60;;;;;;;;;;5100920;28;20212;-65
2023/08/08 10:55:22;;;;;;;3.17;1.60;;;;;;;;;;5100489;28;20237;-65
2023/08/08 10:57:58;;;;;;;2.23;0.77;;;;;;;;;;5100480;28;20209;-66
2023/08/08 11:00:27;;;;;;;1.83;0.90;;;;;;;;;;5090270;28;20317;-65
2023/08/08 11:02:56;;;;;;;1.17;0.87;;;;;;;;;;5100440;28;20285;-65
2023/08/08 11:05:24;;;;;;;1.47;0.80;;;;;;;;;;5100527;28;20214;-66
2023/08/08 11:07:54;;;;;;;0.87;0.83;;;;;;;;;;5100424;28;20239;-65
2023/08/08 11:10:23;;;;;;;0.93;0.50;;;;;;;;;;5099886;28;20227;-65
2023/08/08 11:12:58;;;;;;;1.60;0.83;;;;;;;;;;5100453;28;20712;-65
2023/08/08 11:15:27;;;;;;;1.03;0.90;;;;;;;;;;5100160;28;20353;-65
2023/08/08 11:17:55;;;;;;;0.90;0.90;;;;;;;;;;5100355;28;20202;-65
2023/08/08 11:20:24;;;;;;;1.10;0.80;;;;;;;;;;5100635;28;20239;-65
2023/08/08 11:22:54;;;;;;;0.73;0.73;;;;;;;;;;5099896;28;20724;-65
2023/08/08 11:25:22;;;;;;;0.70;0.70;;;;;;;;;;5100017;28;20216;-65
2023/08/08 11:27:51;;;;;;;2.43;0.93;;;;;;;;;;5100161;28;20209;-65
2023/08/08 11:30:19;;;;;;;0.77;0.73;;;;;;;;;;5099922;28;20293;-65
2023/08/08 11:32:47;;;;;;;4.53;0.70;;;;;;;;;;5099748;28;20233;-65
2023/08/08 11:35:35;;;;;;;0.93;0.80;;;;;;;;;;5099341;28;20281;-65
2023/08/08 11:38:05;;;;;;;0.70;0.70;;;;;;;;;;5099889;28;20253;-65
2023/08/08 11:40:33;;;;;;;1.03;0.53;;;;;;;;;;5091441;28;20244;-65
2023/08/08 11:43:00;;;;;;;3.20;1.20;;;;;;;;;;5099872;28;20208;-65
2023/08/08 11:45:29;;;;;;;0.73;0.73;;;;;;;;;;5099778;28;20225;-65
2023/08/08 11:47:57;;;;;;;2.17;0.90;;;;;;;;;;5099541;28;20237;-65
2023/08/08 11:50:27;;;;;;;2.07;0.70;;;;;;;;;;5099362;28;20243;-65
2023/08/08 11:52:55;;;;;;;1.30;0.83;;;;;;;;;;5099368;28;20215;-65
2023/08/08 11:55:29;;;;;;;0.60;0.60;;;;;;;;;;5099484;28;20207;-65
2023/08/08 11:57:59;;;;;;;0.90;0.60;;;;;;;;;;5099394;28;20565;-65
2023/08/08 12:00:28;;;;;;;0.87;0.70;;;;;;;;;;5089890;28;20249;-65
2023/08/08 12:02:56;;;;;;;0.80;0.80;;;;;;;;;;5099274;28;20278;-66
2023/08/08 12:05:24;;;;;;;1.27;0.90;;;;;;;;;;5099475;28;20716;-66
2023/08/08 12:07:52;;;;;;;0.97;0.80;;;;;;;;;;5099184;28;20206;-65
2023/08/08 12:10:21;;;;;;;0.73;0.73;;;;;;;;;;5098727;28;20261;-66
2023/08/08 12:12:56;;;;;;;0.67;0.67;;;;;;;;;;5099041;28;20617;-66
2023/08/08 12:15:24;;;;;;;1.57;0.70;;;;;;;;;;5098981;28;20211;-65
2023/08/08 12:17:52;;;;;;;0.90;0.83;;;;;;;;;;5099123;28;20205;-66
2023/08/08 12:20:19;;;;;;;1.17;0.80;;;;;;;;;;5098860;28;20225;-65
2023/08/08 12:22:47;;;;;;;1.20;1.10;;;;;;;;;;5098974;28;20280;-66
2023/08/08 12:25:15;;;;;;;1.50;0.87;;;;;;;;;;5098642;28;20741;-66
2023/08/08 12:27:43;;;;;;;0.67;0.67;;;;;;;;;;5098707;28;20206;-66
2023/08/08 12:30:13;;;;;;;1.20;1.10;;;;;;;;;;5098703;28;20230;-65
2023/08/08 12:32:41;;;;;;;1.07;0.90;;;;;;;;;;5096381;28;20781;-66
2023/08/08 12:35:09;;;;;;;1.30;0.77;;;;;;;;;;5098861;28;20582;-66
2023/08/08 12:37:37;;;;;;;0.63;0.63;;;;;;;;;;5098508;28;20296;-66
2023/08/08 12:40:06;;;;;;;0.90;0.77;;;;;;;;;;5093847;28;20250;-66
2023/08/08 12:42:35;;;;;;;0.80;0.80;;;;;;;;;;5097775;28;20238;-65
2023/08/08 12:45:03;;;;;;;0.60;0.60;;;;;;;;;;5098729;28;20205;-66
2023/08/08 12:47:32;;;;;;;1.73;1.23;;;;;;;;;;5098610;28;20227;-66
2023/08/08 12:50:00;;;;;;;1.70;1.20;;;;;;;;;;5098502;28;20226;-66
2023/08/08 12:52:28;;;;;;;3.40;1.23;;;;;;;;;;5098126;28;20278;-65
2023/08/08 12:54:55;;;;;;;0.90;0.90;;;;;;;;;;5098621;28;20244;-65
2023/08/08 12:57:23;;;;;;;2.57;1.23;;;;;;;;;;5098117;28;20647;-64
2023/08/08 12:59:51;;;;;;;1.87;0.80;;;;;;;;;;5088557;28;20601;-65
2023/08/08 13:02:19;;;;;;;0.90;0.90;;;;;;;;;;5098181;28;20209;-66
2023/08/08 13:04:48;;;;;;;0.57;0.57;;;;;;;;;;5098074;28;20213;-65
2023/08/08 13:07:16;;;;;;;1.10;1.00;;;;;;;;;;5098237;28;20202;-65
2023/08/08 13:09:44;;;;;;;1.77;1.13;;;;;;;;;;5097898;28;20205;-66
2023/08/08 13:12:12;;;;;;;2.13;0.80;;;;;;;;;;5097966;28;20225;-65
2023/08/08 13:14:39;;;;;;;1.80;0.60;;;;;;;;;;5097986;28;20235;-65
2023/08/08 13:17:07;;;;;;;1.30;1.10;;;;;;;;;;5098245;28;20233;-66
2023/08/08 13:19:35;;;;;;;2.90;0.90;;;;;;;;;;5098093;28;20211;-65
2023/08/08 13:22:04;;;;;;;2.83;0.63;;;;;;;;;;5098096;28;20646;-66
2023/08/08 13:24:32;;;;;;;2.00;0.70;;;;;;;;;;5097981;28;20665;-65
2023/08/08 13:27:00;;;;;;;1.70;1.00;;;;;;;;;;5097871;28;20732;-65
2023/08/08 13:29:28;;;;;;;0.63;0.63;;;;;;;;;;5098053;28;20214;-65
2023/08/08 13:31:56;;;;;;;2.20;0.93;;;;;;;;;;5097697;28;20249;-66
2023/08/08 13:34:24;;;;;;;0.70;0.70;;;;;;;;;;5097768;28;20689;-66
2023/08/08 13:36:52;;;;;;;0.90;0.77;;;;;;;;;;5097667;28;20728;-65
2023/08/08 13:39:21;;;;;;;0.90;0.77;;;;;;;;;;5097773;28;20606;-66
2023/08/08 13:41:48;;;;;;;2.10;0.90;;;;;;;;;;5091364;28;20214;-65
2023/08/08 13:44:16;;;;;;;2.93;0.80;;;;;;;;;;5097725;28;20570;-66
2023/08/08 13:46:44;;;;;;;1.27;1.00;;;;;;;;;;5097690;28;20205;-65
2023/08/08 13:49:12;;;;;;;2.33;0.77;;;;;;;;;;5097583;28;20203;-66
2023/08/08 13:51:39;;;;;;;1.53;0.90;;;;;;;;;;5097668;28;20262;-65
2023/08/08 13:54:10;;;;;;;2.33;1.10;;;;;;;;;;5097962;28;20215;-65
2023/08/08 13:56:39;;;;;;;2.50;1.80;;;;;;;;;;5097560;28;20302;-64
2023/08/08 13:59:07;;;;;;;3.73;1.30;;;;;;;;;;5096304;28;20650;-65
2023/08/08 14:01:35;;;;;;;1.53;1.00;;;;;;;;;;5095606;28;20288;-64
2023/08/08 14:04:03;;;;;;;1.37;0.97;;;;;;;;;;5101801;28;20238;-64
2023/08/08 14:06:31;;;;;;;1.37;1.03;;;;;;;;;;5101580;28;20210;-64
2023/08/08 14:08:58;;;;;;;0.87;0.80;;;;;;;;;;5101537;28;20209;-65
2023/08/08 14:11:26;;;;;;;1.57;1.10;;;;;;;;;;5100933;28;20228;-65
2023/08/08 14:13:55;;;;;;;1.57;1.20;;;;;;;;;;5101456;28;20217;-64
2023/08/08 14:16:23;;;;;;;3.03;0.90;;;;;;;;;;5101042;28;20710;-64
2023/08/08 14:18:51;;;;;;;1.13;0.93;;;;;;;;;;5101144;28;20261;-64
2023/08/08 14:21:19;;;;;;;3.47;1.00;;;;;;;;;;5101229;28;20296;-64
2023/08/08 14:23:47;;;;;;;3.03;1.03;;;;;;;;;;5101215;28;20567;-64
2023/08/08 14:26:14;;;;;;;2.30;0.83;;;;;;;;;;5101033;28;20288;-66
2023/08/08 14:28:42;;;;;;;1.50;1.10;;;;;;;;;;5101384;28;20212;-64
2023/08/08 14:31:11;;;;;;;1.03;0.90;;;;;;;;;;5101123;28;20229;-65
2023/08/08 14:33:39;;;;;;;1.03;0.97;;;;;;;;;;5101165;28;20246;-65
2023/08/08 14:36:07;;;;;;;5.83;1.00;;;;;;;;;;5101053;28;20210;-65
2023/08/08 14:38:35;;;;;;;0.80;0.80;;;;;;;;;;5101225;28;20204;-64
2023/08/08 14:41:03;;;;;;;1.00;0.80;;;;;;;;;;5093411;28;20225;-65
2023/08/08 14:43:31;;;;;;;1.37;1.00;;;;;;;;;;5101109;28;20223;-66
2023/08/08 14:45:59;;;;;;;1.20;1.10;;;;;;;;;;5100910;28;20207;-66
2023/08/08 14:48:28;;;;;;;1.97;1.07;;;;;;;;;;5100748;28;20611;-66
2023/08/08 14:50:56;;;;;;;2.27;1.10;;;;;;;;;;5087597;28;20227;-66